sensor_id;sensor_type;location;lat;lon;timestamp;pressure;altitude;pressure_sealevel;temperature;humidity
6899;BME280;3488;42.616;23.350;2023-03-21T00:02:26;63178.78;;;11.50;51.60
6899;BME280;3488;42.616;23.350;2023-03-21T00:04:53;63180.28;;;11.49;51.15
6899;BME280;3488;42.616;23.350;2023-03-21T00:07:20;63187.97;;;11.51;51.10
6899;BME280;3488;42.616;23.350;2023-03-21T00:09:48;63182.88;;;11.51;50.87
6899;BME280;3488;42.616;23.350;2023-03-21T00:12:14;63187.03;;;11.55;51.32
6899;BME280;3488;42.616;23.350;2023-03-21T00:14:42;63184.34;;;11.48;51.71
6899;BME280;3488;42.616;23.350;2023-03-21T00:17:09;63184.88;;;11.48;51.85
6899;BME280;3488;42.616;23.350;2023-03-21T00:19:38;63180.75;;;11.47;52.26
6899;BME280;3488;42.616;23.350;2023-03-21T00:22:05;63176.13;;;11.45;52.26
6899;BME280;3488;42.616;23.350;2023-03-21T00:24:32;63179.69;;;11.43;52.42
6899;BME280;3488;42.616;23.350;2023-03-21T00:26:59;63167.38;;;11.39;52.86
6899;BME280;3488;42.616;23.350;2023-03-21T00:29:26;63164.75;;;11.34;53.13
6899;BME280;3488;42.616;23.350;2023-03-21T00:31:53;63155.44;;;11.25;53.46
6899;BME280;3488;42.616;23.350;2023-03-21T00:34:20;63151.75;;;11.19;53.65
6899;BME280;3488;42.616;23.350;2023-03-21T00:36:48;63152.72;;;11.15;53.69
6899;BME280;3488;42.616;23.350;2023-03-21T00:39:16;63143.47;;;11.11;53.74
6899;BME280;3488;42.616;23.350;2023-03-21T00:41:43;63139.31;;;11.04;53.98
6899;BME280;3488;42.616;23.350;2023-03-21T00:44:10;63133.16;;;11.03;54.41
6899;BME280;3488;42.616;23.350;2023-03-21T00:46:40;63127.47;;;10.98;54.74
6899;BME280;3488;42.616;23.350;2023-03-21T00:49:07;63130.41;;;10.91;55.07
6899;BME280;3488;42.616;23.350;2023-03-21T00:51:34;63109.31;;;10.78;55.23
6899;BME280;3488;42.616;23.350;2023-03-21T00:54:03;63109.31;;;10.78;54.93
6899;BME280;3488;42.616;23.350;2023-03-21T00:56:30;63104.13;;;10.73;54.77
6899;BME280;3488;42.616;23.350;2023-03-21T00:58:57;63106.16;;;10.72;55.32
6899;BME280;3488;42.616;23.350;2023-03-21T01:01:24;63096.41;;;10.68;55.24
6899;BME280;3488;42.616;23.350;2023-03-21T01:03:56;63089.66;;;10.59;55.39
6899;BME280;3488;42.616;23.350;2023-03-21T01:06:27;63083.94;;;10.53;55.31
6899;BME280;3488;42.616;23.350;2023-03-21T01:08:54;63079.28;;;10.48;54.66
6899;BME280;3488;42.616;23.350;2023-03-21T01:11:27;63072.06;;;10.41;54.03
6899;BME280;3488;42.616;23.350;2023-03-21T01:13:54;63064.34;;;10.36;53.93
6899;BME280;3488;42.616;23.350;2023-03-21T01:16:21;63066.81;;;10.34;54.68
6899;BME280;3488;42.616;23.350;2023-03-21T01:18:48;63053.53;;;10.28;53.69
6899;BME280;3488;42.616;23.350;2023-03-21T01:21:15;63049.28;;;10.19;54.21
6899;BME280;3488;42.616;23.350;2023-03-21T01:23:43;63040.53;;;10.13;54.70
6899;BME280;3488;42.616;23.350;2023-03-21T01:26:11;63043.53;;;10.11;54.40
6899;BME280;3488;42.616;23.350;2023-03-21T01:28:40;63050.19;;;10.13;54.47
6899;BME280;3488;42.616;23.350;2023-03-21T01:31:10;63047.16;;;10.15;55.43
6899;BME280;3488;42.616;23.350;2023-03-21T01:33:38;63037.31;;;10.05;54.91
6899;BME280;3488;42.616;23.350;2023-03-21T01:36:06;63035.31;;;10.06;54.58
6899;BME280;3488;42.616;23.350;2023-03-21T01:38:32;63031.69;;;10.02;54.32
6899;BME280;3488;42.616;23.350;2023-03-21T01:41:00;63036.28;;;10.04;54.82
6899;BME280;3488;42.616;23.350;2023-03-21T01:43:29;63032.72;;;10.03;55.97
6899;BME280;3488;42.616;23.350;2023-03-21T01:46:21;63037.91;;;10.08;56.86
6899;BME280;3488;42.616;23.350;2023-03-21T01:48:54;63041.50;;;10.09;57.14
6899;BME280;3488;42.616;23.350;2023-03-21T01:51:23;63048.25;;;10.18;56.74
6899;BME280;3488;42.616;23.350;2023-03-21T01:53:50;63047.75;;;10.18;56.95
6899;BME280;3488;42.616;23.350;2023-03-21T01:56:22;63047.75;;;10.18;57.08
6899;BME280;3488;42.616;23.350;2023-03-21T01:58:51;63050.75;;;10.16;57.15
6899;BME280;3488;42.616;23.350;2023-03-21T02:01:22;63039.97;;;10.10;57.18
6899;BME280;3488;42.616;23.350;2023-03-21T02:03:50;63027.06;;;10.00;57.87
6899;BME280;3488;42.616;23.350;2023-03-21T02:06:31;63026.50;;;9.97;56.75
6899;BME280;3488;42.616;23.350;2023-03-21T02:09:03;63024.94;;;9.96;56.88
6899;BME280;3488;42.616;23.350;2023-03-21T02:11:34;63020.81;;;9.92;57.06
6899;BME280;3488;42.616;23.350;2023-03-21T02:14:03;63009.00;;;9.85;57.97
6899;BME280;3488;42.616;23.350;2023-03-21T02:16:40;63009.88;;;9.76;57.11
6899;BME280;3488;42.616;23.350;2023-03-21T02:19:47;62997.03;;;9.69;58.02
6899;BME280;3488;42.616;23.350;2023-03-21T02:25:59;62986.69;;;9.59;57.74
6899;BME280;3488;42.616;23.350;2023-03-21T02:28:38;62994.44;;;9.66;57.87
6899;BME280;3488;42.616;23.350;2023-03-21T02:31:19;62990.88;;;9.65;58.48
6899;BME280;3488;42.616;23.350;2023-03-21T02:34:11;62989.78;;;9.62;59.05
6899;BME280;3488;42.616;23.350;2023-03-21T02:36:59;62992.38;;;9.64;59.05
6899;BME280;3488;42.616;23.350;2023-03-21T02:39:35;62993.94;;;9.66;58.84
6899;BME280;3488;42.616;23.350;2023-03-21T02:42:07;62997.00;;;9.66;58.70
6899;BME280;3488;42.616;23.350;2023-03-21T02:44:40;62997.03;;;9.69;58.23
6899;BME280;3488;42.616;23.350;2023-03-21T02:47:12;62989.31;;;9.64;58.55
6899;BME280;3488;42.616;23.350;2023-03-21T02:49:44;62983.63;;;9.58;58.86
6899;BME280;3488;42.616;23.350;2023-03-21T02:52:17;62986.63;;;9.56;58.48
6899;BME280;3488;42.616;23.350;2023-03-21T02:54:48;62983.00;;;9.53;58.86
6899;BME280;3488;42.616;23.350;2023-03-21T02:57:18;62989.22;;;9.59;59.24
6899;BME280;3488;42.616;23.350;2023-03-21T02:59:47;62984.06;;;9.54;59.91
6899;BME280;3488;42.616;23.350;2023-03-21T03:02:16;62984.63;;;9.57;59.65
6899;BME280;3488;42.616;23.350;2023-03-21T03:04:44;62985.13;;;9.57;59.89
6899;BME280;3488;42.616;23.350;2023-03-21T03:07:18;62984.66;;;9.59;60.41
6899;BME280;3488;42.616;23.350;2023-03-21T03:10:00;62985.09;;;9.55;59.95
6899;BME280;3488;42.616;23.350;2023-03-21T03:12:34;62982.03;;;9.54;59.54
6899;BME280;3488;42.616;23.350;2023-03-21T03:15:13;62981.00;;;9.53;59.13
6899;BME280;3488;42.616;23.350;2023-03-21T03:17:50;62983.59;;;9.56;59.22
6899;BME280;3488;42.616;23.350;2023-03-21T03:20:24;62962.94;;;9.38;61.00
6899;BME280;3488;42.616;23.350;2023-03-21T03:23:02;62965.41;;;9.33;61.59
6899;BME280;3488;42.616;23.350;2023-03-21T03:25:36;62959.78;;;9.30;62.10
6899;BME280;3488;42.616;23.350;2023-03-21T03:28:05;62952.03;;;9.25;62.01
6899;BME280;3488;42.616;23.350;2023-03-21T03:30:35;62954.06;;;9.24;62.18
6899;BME280;3488;42.616;23.350;2023-03-21T03:33:04;62945.38;;;9.21;62.94
6899;BME280;3488;42.616;23.350;2023-03-21T03:35:32;62945.31;;;9.18;63.97
6899;BME280;3488;42.616;23.350;2023-03-21T03:38:04;62937.63;;;9.13;63.99
6899;BME280;3488;42.616;23.350;2023-03-21T03:40:38;62936.53;;;9.10;63.80
6899;BME280;3488;42.616;23.350;2023-03-21T03:43:09;62932.91;;;9.06;63.34
6899;BME280;3488;42.616;23.350;2023-03-21T03:45:42;62931.91;;;9.05;63.87
6899;BME280;3488;42.616;23.350;2023-03-21T03:48:14;62923.16;;;8.99;64.56
6899;BME280;3488;42.616;23.350;2023-03-21T03:50:47;62918.50;;;8.95;64.99
6899;BME280;3488;42.616;23.350;2023-03-21T03:53:20;62918.88;;;8.88;65.58
6899;BME280;3488;42.616;23.350;2023-03-21T03:55:48;62905.53;;;8.80;66.22
6899;BME280;3488;42.616;23.350;2023-03-21T03:58:18;62904.47;;;8.76;67.18
6899;BME280;3488;42.616;23.350;2023-03-21T04:00:45;62909.63;;;8.81;68.13
6899;BME280;3488;42.616;23.350;2023-03-21T04:03:14;62905.50;;;8.77;68.75
6899;BME280;3488;42.616;23.350;2023-03-21T04:05:41;62894.72;;;8.72;69.26
6899;BME280;3488;42.616;23.350;2023-03-21T04:08:11;62896.78;;;8.74;69.84
6899;BME280;3488;42.616;23.350;2023-03-21T04:10:40;62895.25;;;8.72;69.99
6899;BME280;3488;42.616;23.350;2023-03-21T04:13:07;62899.84;;;8.74;70.07
6899;BME280;3488;42.616;23.350;2023-03-21T04:15:35;62895.78;;;8.73;70.34
6899;BME280;3488;42.616;23.350;2023-03-21T04:18:02;62892.63;;;8.67;70.35
6899;BME280;3488;42.616;23.350;2023-03-21T04:20:29;62901.41;;;8.76;67.60
6899;BME280;3488;42.616;23.350;2023-03-21T04:22:57;62906.56;;;8.81;67.05
6899;BME280;3488;42.616;23.350;2023-03-21T04:25:24;62900.31;;;8.72;67.27
6899;BME280;3488;42.616;23.350;2023-03-21T04:27:54;62887.03;;;8.67;67.36
6899;BME280;3488;42.616;23.350;2023-03-21T04:30:21;62872.00;;;8.50;68.87
6899;BME280;3488;42.616;23.350;2023-03-21T04:32:49;62880.22;;;8.55;67.24
6899;BME280;3488;42.616;23.350;2023-03-21T04:35:19;62874.63;;;8.55;67.05
6899;BME280;3488;42.616;23.350;2023-03-21T04:37:46;62871.47;;;8.49;66.99
6899;BME280;3488;42.616;23.350;2023-03-21T04:40:14;62874.00;;;8.49;67.02
6899;BME280;3488;42.616;23.350;2023-03-21T04:42:43;62875.06;;;8.50;67.05
6899;BME280;3488;42.616;23.350;2023-03-21T04:45:12;62875.59;;;8.51;66.81
6899;BME280;3488;42.616;23.350;2023-03-21T04:47:39;62886.31;;;8.56;66.34
6899;BME280;3488;42.616;23.350;2023-03-21T04:50:08;62883.31;;;8.58;65.93
6899;BME280;3488;42.616;23.350;2023-03-21T04:52:35;62891.06;;;8.66;65.86
6899;BME280;3488;42.616;23.350;2023-03-21T04:55:03;62888.63;;;8.71;65.44
6899;BME280;3488;42.616;23.350;2023-03-21T04:57:34;62908.13;;;8.82;65.66
6899;BME280;3488;42.616;23.350;2023-03-21T05:00:03;62914.84;;;8.89;65.49
6899;BME280;3488;42.616;23.350;2023-03-21T05:02:35;62915.88;;;8.90;65.39
6899;BME280;3488;42.616;23.350;2023-03-21T05:05:02;62933.91;;;9.05;64.53
6899;BME280;3488;42.616;23.350;2023-03-21T05:07:29;62941.09;;;9.09;64.57
6899;BME280;3488;42.616;23.350;2023-03-21T05:09:57;62941.75;;;9.17;64.10
6899;BME280;3488;42.616;23.350;2023-03-21T05:12:24;62946.88;;;9.20;64.15
6899;BME280;3488;42.616;23.350;2023-03-21T05:14:51;62953.59;;;9.26;63.35
6899;BME280;3488;42.616;23.350;2023-03-21T05:17:18;62959.84;;;9.35;63.31
6899;BME280;3488;42.616;23.350;2023-03-21T05:19:49;62970.19;;;9.45;62.91
6899;BME280;3488;42.616;23.350;2023-03-21T05:22:17;62975.34;;;9.50;63.29
6899;BME280;3488;42.616;23.350;2023-03-21T05:24:45;62987.69;;;9.57;63.25
6899;BME280;3488;42.616;23.350;2023-03-21T05:27:15;62993.88;;;9.63;63.06
6899;BME280;3488;42.616;23.350;2023-03-21T05:29:58;63002.63;;;9.69;62.68
6899;BME280;3488;42.616;23.350;2023-03-21T05:32:25;63008.34;;;9.77;62.89
6899;BME280;3488;42.616;23.350;2023-03-21T05:34:54;63007.41;;;9.81;62.80
6899;BME280;3488;42.616;23.350;2023-03-21T05:37:20;63020.25;;;9.89;62.55
6899;BME280;3488;42.616;23.350;2023-03-21T05:39:48;63031.69;;;10.02;62.77
6899;BME280;3488;42.616;23.350;2023-03-21T05:42:15;63039.97;;;10.10;62.80
6899;BME280;3488;42.616;23.350;2023-03-21T05:44:43;63047.78;;;10.20;62.55
6899;BME280;3488;42.616;23.350;2023-03-21T05:47:10;63057.09;;;10.29;62.19
6899;BME280;3488;42.616;23.350;2023-03-21T05:49:37;63074.63;;;10.44;61.75
6899;BME280;3488;42.616;23.350;2023-03-21T05:52:05;63086.06;;;10.58;61.66
6899;BME280;3488;42.616;23.350;2023-03-21T05:54:32;63106.72;;;10.75;60.95
6899;BME280;3488;42.616;23.350;2023-03-21T05:57:00;63122.22;;;10.88;60.77
6899;BME280;3488;42.616;23.350;2023-03-21T05:59:27;63138.31;;;11.06;59.57
6899;BME280;3488;42.616;23.350;2023-03-21T06:01:54;63152.75;;;11.17;59.12
6899;BME280;3488;42.616;23.350;2023-03-21T06:04:21;63164.25;;;11.33;58.46
6899;BME280;3488;42.616;23.350;2023-03-21T06:06:48;63172.00;;;11.41;59.11
6899;BME280;3488;42.616;23.350;2023-03-21T06:09:17;63182.31;;;11.48;59.25
6899;BME280;3488;42.616;23.350;2023-03-21T06:11:46;63191.13;;;11.57;59.25
6899;BME280;3488;42.616;23.350;2023-03-21T06:14:14;63209.22;;;11.72;59.24
6899;BME280;3488;42.616;23.350;2023-03-21T06:16:41;63219.72;;;11.90;60.00
6899;BME280;3488;42.616;23.350;2023-03-21T06:19:08;63237.69;;;11.97;59.54
6899;BME280;3488;42.616;23.350;2023-03-21T06:21:35;63253.78;;;12.15;58.58
6899;BME280;3488;42.616;23.350;2023-03-21T06:24:02;63268.81;;;12.30;57.58
6899;BME280;3488;42.616;23.350;2023-03-21T06:26:31;63274.00;;;12.35;57.32
6899;BME280;3488;42.616;23.350;2023-03-21T06:28:58;63290.16;;;12.55;57.15
6899;BME280;3488;42.616;23.350;2023-03-21T06:31:25;63301.03;;;12.66;57.71
6899;BME280;3488;42.616;23.350;2023-03-21T06:33:52;63298.97;;;12.64;57.98
6899;BME280;3488;42.616;23.350;2023-03-21T06:36:19;63323.78;;;12.83;57.16
6899;BME280;3488;42.616;23.350;2023-03-21T06:38:46;63318.13;;;12.80;56.22
6899;BME280;3488;42.616;23.350;2023-03-21T06:41:14;63344.09;;;13.08;56.03
6899;BME280;3488;42.616;23.350;2023-03-21T06:43:43;63365.31;;;13.26;55.23
6899;BME280;3488;42.616;23.350;2023-03-21T06:46:10;63368.47;;;13.31;55.01
6899;BME280;3488;42.616;23.350;2023-03-21T06:48:37;63394.25;;;13.46;53.15
6899;BME280;3488;42.616;23.350;2023-03-21T06:51:09;63370.47;;;13.28;52.51
6899;BME280;3488;42.616;23.350;2023-03-21T06:53:37;63346.19;;;13.10;53.71
6899;BME280;3488;42.616;23.350;2023-03-21T06:56:07;63363.75;;;13.22;53.10
6899;BME280;3488;42.616;23.350;2023-03-21T06:58:34;63329.50;;;12.89;53.94
6899;BME280;3488;42.616;23.350;2023-03-21T07:01:03;63359.06;;;13.17;54.70
6899;BME280;3488;42.616;23.350;2023-03-21T07:03:30;63357.56;;;13.18;54.99
6899;BME280;3488;42.616;23.350;2023-03-21T07:05:57;63362.22;;;13.23;54.87
6899;BME280;3488;42.616;23.350;2023-03-21T07:08:24;63354.94;;;13.16;54.70
6899;BME280;3488;42.616;23.350;2023-03-21T07:10:54;63351.84;;;13.13;54.94
6899;BME280;3488;42.616;23.350;2023-03-21T07:13:22;63349.25;;;13.10;54.59
6899;BME280;3488;42.616;23.350;2023-03-21T07:15:49;63318.13;;;12.80;55.50
6899;BME280;3488;42.616;23.350;2023-03-21T07:18:17;63334.66;;;12.94;54.95
6899;BME280;3488;42.616;23.350;2023-03-21T07:20:46;63328.47;;;12.90;54.15
6899;BME280;3488;42.616;23.350;2023-03-21T07:23:15;63335.75;;;12.97;54.23
6899;BME280;3488;42.616;23.350;2023-03-21T07:25:42;63322.78;;;12.85;54.49
6899;BME280;3488;42.616;23.350;2023-03-21T07:28:09;63337.31;;;12.99;54.92
6899;BME280;3488;42.616;23.350;2023-03-21T07:30:36;63372.06;;;13.32;54.12
6899;BME280;3488;42.616;23.350;2023-03-21T07:33:03;63400.09;;;13.59;53.34
6899;BME280;3488;42.616;23.350;2023-03-21T07:35:33;63395.94;;;13.55;53.43
6899;BME280;3488;42.616;23.350;2023-03-21T07:38:01;63397.53;;;13.59;52.99
6899;BME280;3488;42.616;23.350;2023-03-21T07:40:28;63403.16;;;13.60;52.89
6899;BME280;3488;42.616;23.350;2023-03-21T07:42:55;63407.88;;;13.67;52.70
6899;BME280;3488;42.616;23.350;2023-03-21T07:45:22;63423.41;;;13.79;52.40
6899;BME280;3488;42.616;23.350;2023-03-21T07:47:50;63435.91;;;13.94;52.39
6899;BME280;3488;42.616;23.350;2023-03-21T07:50:17;63461.38;;;14.21;51.08
6899;BME280;3488;42.616;23.350;2023-03-21T07:52:45;63507.56;;;14.63;50.26
6899;BME280;3488;42.616;23.350;2023-03-21T07:55:12;63512.19;;;14.65;49.64
6899;BME280;3488;42.616;23.350;2023-03-21T07:57:39;63481.59;;;14.38;50.11
6899;BME280;3488;42.616;23.350;2023-03-21T08:00:07;63482.63;;;14.39;50.42
6899;BME280;3488;42.616;23.350;2023-03-21T08:02:35;63424.53;;;13.85;50.90
6899;BME280;3488;42.616;23.350;2023-03-21T08:05:02;63396.94;;;13.54;51.37
6899;BME280;3488;42.616;23.350;2023-03-21T08:07:29;63384.50;;;13.44;52.86
6899;BME280;3488;42.616;23.350;2023-03-21T08:09:58;63382.88;;;13.35;52.65
6899;BME280;3488;42.616;23.350;2023-03-21T08:12:25;63358.09;;;13.21;53.45
6899;BME280;3488;42.616;23.350;2023-03-21T08:14:52;63387.56;;;13.42;52.63
6899;BME280;3488;42.616;23.350;2023-03-21T08:17:19;63424.47;;;13.83;52.06
6899;BME280;3488;42.616;23.350;2023-03-21T08:19:46;63424.47;;;13.83;51.31
6899;BME280;3488;42.616;23.350;2023-03-21T08:22:13;63436.41;;;13.94;50.99
6899;BME280;3488;42.616;23.350;2023-03-21T08:24:40;63442.53;;;13.93;50.25
6899;BME280;3488;42.616;23.350;2023-03-21T08:27:08;63432.81;;;13.93;51.14
6899;BME280;3488;42.616;23.350;2023-03-21T08:29:36;63470.22;;;14.30;50.22
6899;BME280;3488;42.616;23.350;2023-03-21T08:32:06;63486.34;;;14.48;49.33
6899;BME280;3488;42.616;23.350;2023-03-21T08:34:33;63536.06;;;14.86;48.32
6899;BME280;3488;42.616;23.350;2023-03-21T08:37:01;63572.44;;;15.21;47.31
6899;BME280;3488;42.616;23.350;2023-03-21T08:39:28;63582.34;;;15.33;46.56
6899;BME280;3488;42.616;23.350;2023-03-21T08:41:55;63577.16;;;15.31;47.26
6899;BME280;3488;42.616;23.350;2023-03-21T08:44:23;63592.75;;;15.43;46.65
6899;BME280;3488;42.616;23.350;2023-03-21T08:46:51;63538.69;;;14.91;47.37
6899;BME280;3488;42.616;23.350;2023-03-21T08:49:18;63553.22;;;15.05;47.44
6899;BME280;3488;42.616;23.350;2023-03-21T08:51:45;63584.91;;;15.33;47.10
6899;BME280;3488;42.616;23.350;2023-03-21T08:54:17;63571.41;;;15.23;46.55
6899;BME280;3488;42.616;23.350;2023-03-21T08:56:45;63584.44;;;15.38;46.08
6899;BME280;3488;42.616;23.350;2023-03-21T08:59:13;63592.78;;;15.46;45.84
6899;BME280;3488;42.616;23.350;2023-03-21T09:01:41;63616.19;;;15.68;45.24
6899;BME280;3488;42.616;23.350;2023-03-21T09:04:09;63634.34;;;15.83;44.26
6899;BME280;3488;42.616;23.350;2023-03-21T09:06:36;63649.47;;;16.03;43.51
6899;BME280;3488;42.616;23.350;2023-03-21T09:09:06;63640.56;;;15.89;43.47
6899;BME280;3488;42.616;23.350;2023-03-21T09:11:34;63660.78;;;16.04;43.71
6899;BME280;3488;42.616;23.350;2023-03-21T09:14:01;63651.53;;;16.02;44.21
6899;BME280;3488;42.616;23.350;2023-03-21T09:16:27;63639.56;;;15.91;44.82
6899;BME280;3488;42.616;23.350;2023-03-21T09:18:56;63661.91;;;16.12;44.11
6899;BME280;3488;42.616;23.350;2023-03-21T09:21:24;63663.41;;;16.06;44.17
6899;BME280;3488;42.616;23.350;2023-03-21T09:23:53;63674.94;;;16.25;43.53
6899;BME280;3488;42.616;23.350;2023-03-21T09:26:23;63699.41;;;16.51;42.99
6899;BME280;3488;42.616;23.350;2023-03-21T09:28:50;63725.94;;;16.77;42.07
6899;BME280;3488;42.616;23.350;2023-03-21T09:31:18;63737.31;;;16.83;41.86
6899;BME280;3488;42.616;23.350;2023-03-21T09:33:47;63751.44;;;17.01;40.73
6899;BME280;3488;42.616;23.350;2023-03-21T09:36:16;63697.75;;;16.45;41.38
6899;BME280;3488;42.616;23.350;2023-03-21T09:38:47;63675.47;;;16.28;42.17
6899;BME280;3488;42.616;23.350;2023-03-21T09:41:24;63652.06;;;16.03;42.99
6899;BME280;3488;42.616;23.350;2023-03-21T09:44:02;63649.94;;;15.98;43.08
6899;BME280;3488;42.616;23.350;2023-03-21T09:46:35;63680.09;;;16.28;42.40
6899;BME280;3488;42.616;23.350;2023-03-21T09:49:10;63712.91;;;16.62;41.69
6899;BME280;3488;42.616;23.350;2023-03-21T09:51:44;63715.03;;;16.66;42.27
6899;BME280;3488;42.616;23.350;2023-03-21T09:54:18;63669.72;;;16.20;42.11
6899;BME280;3488;42.616;23.350;2023-03-21T09:56:48;63708.16;;;16.52;41.07
6899;BME280;3488;42.616;23.350;2023-03-21T09:59:21;63705.66;;;16.57;41.42
6899;BME280;3488;42.616;23.350;2023-03-21T10:01:50;63726.38;;;16.70;40.87
6899;BME280;3488;42.616;23.350;2023-03-21T10:04:20;63735.25;;;16.81;40.52
6899;BME280;3488;42.616;23.350;2023-03-21T10:06:55;63735.78;;;16.81;40.43
6899;BME280;3488;42.616;23.350;2023-03-21T10:09:25;63740.47;;;16.86;41.40
6899;BME280;3488;42.616;23.350;2023-03-21T10:11:56;63729.56;;;16.78;40.27
6899;BME280;3488;42.616;23.350;2023-03-21T10:14:28;63733.22;;;16.84;40.71
6899;BME280;3488;42.616;23.350;2023-03-21T10:16:57;63732.72;;;16.83;40.34
6899;BME280;3488;42.616;23.350;2023-03-21T10:19:26;63769.59;;;17.14;38.85
6899;BME280;3488;42.616;23.350;2023-03-21T10:21:55;63785.28;;;17.34;38.25
6899;BME280;3488;42.616;23.350;2023-03-21T10:24:25;63806.66;;;17.57;37.55
6899;BME280;3488;42.616;23.350;2023-03-21T10:26:53;63849.28;;;17.91;37.27
6899;BME280;3488;42.616;23.350;2023-03-21T10:29:23;63819.59;;;17.62;36.67
6899;BME280;3488;42.616;23.350;2023-03-21T10:31:52;63800.38;;;17.49;38.27
6899;BME280;3488;42.616;23.350;2023-03-21T10:34:27;63742.03;;;16.90;39.39
6899;BME280;3488;42.616;23.350;2023-03-21T10:36:57;63737.31;;;16.83;39.17
6899;BME280;3488;42.616;23.350;2023-03-21T10:39:27;63764.44;;;17.11;38.72
6899;BME280;3488;42.616;23.350;2023-03-21T10:41:57;63789.91;;;17.33;38.33
6899;BME280;3488;42.616;23.350;2023-03-21T10:44:29;63790.44;;;17.34;40.05
6899;BME280;3488;42.616;23.350;2023-03-21T10:46:57;63838.34;;;17.83;39.52
6899;BME280;3488;42.616;23.350;2023-03-21T10:49:24;63820.66;;;17.66;38.15
6899;BME280;3488;42.616;23.350;2023-03-21T10:51:54;63839.41;;;17.84;38.34
6899;BME280;3488;42.616;23.350;2023-03-21T10:54:28;63848.72;;;17.88;39.33
6899;BME280;3488;42.616;23.350;2023-03-21T10:56:57;63851.81;;;17.88;38.48
6899;BME280;3488;42.616;23.350;2023-03-21T10:59:27;63856.59;;;18.00;37.89
6899;BME280;3488;42.616;23.350;2023-03-21T11:02:03;63855.53;;;17.97;37.69
6899;BME280;3488;42.616;23.350;2023-03-21T11:04:31;63875.84;;;18.16;37.92
6899;BME280;3488;42.616;23.350;2023-03-21T11:07:01;63917.56;;;18.59;37.69
6899;BME280;3488;42.616;23.350;2023-03-21T11:09:45;63935.75;;;18.72;36.47
6899;BME280;3488;42.616;23.350;2023-03-21T11:12:13;63922.22;;;18.61;36.60
6899;BME280;3488;42.616;23.350;2023-03-21T11:14:42;63948.78;;;18.87;36.91
6899;BME280;3488;42.616;23.350;2023-03-21T11:17:20;63948.78;;;18.87;35.74
6899;BME280;3488;42.616;23.350;2023-03-21T11:19:48;63890.94;;;18.31;35.84
6899;BME280;3488;42.616;23.350;2023-03-21T11:22:18;63874.78;;;18.15;36.72
6899;BME280;3488;42.616;23.350;2023-03-21T11:24:49;63862.84;;;18.06;36.96
6899;BME280;3488;42.616;23.350;2023-03-21T11:27:17;63874.28;;;18.17;36.19
6899;BME280;3488;42.616;23.350;2023-03-21T11:29:46;63874.31;;;18.20;35.80
6899;BME280;3488;42.616;23.350;2023-03-21T11:32:20;63882.63;;;18.25;36.29
6899;BME280;3488;42.616;23.350;2023-03-21T11:34:49;63844.06;;;17.86;34.89
6899;BME280;3488;42.616;23.350;2023-03-21T11:37:20;63844.56;;;17.86;34.69
6899;BME280;3488;42.616;23.350;2023-03-21T11:39:53;63839.41;;;17.84;35.85
6899;BME280;3488;42.616;23.350;2023-03-21T11:42:28;63867.47;;;18.06;36.23
6899;BME280;3488;42.616;23.350;2023-03-21T11:45:02;63886.81;;;18.32;36.92
6899;BME280;3488;42.616;23.350;2023-03-21T11:47:30;63915.47;;;18.57;36.14
6899;BME280;3488;42.616;23.350;2023-03-21T11:49:57;63944.06;;;18.80;34.93
6899;BME280;3488;42.616;23.350;2023-03-21T11:52:31;63968.13;;;19.08;33.95
6899;BME280;3488;42.616;23.350;2023-03-21T11:55:19;64000.38;;;19.31;32.94
6899;BME280;3488;42.616;23.350;2023-03-21T11:57:55;63917.03;;;18.59;35.11
6899;BME280;3488;42.616;23.350;2023-03-21T12:00:28;63852.94;;;17.94;34.20
6899;BME280;3488;42.616;23.350;2023-03-21T12:03:22;63806.59;;;17.52;35.52
6899;BME280;3488;42.616;23.350;2023-03-21T12:05:59;63818.06;;;17.63;34.61
6899;BME280;3488;42.616;23.350;2023-03-21T12:08:35;63838.38;;;17.85;34.79
6899;BME280;3488;42.616;23.350;2023-03-21T12:11:15;63863.34;;;18.07;34.36
6899;BME280;3488;42.616;23.350;2023-03-21T12:13:51;63876.38;;;18.19;33.35
6899;BME280;3488;42.616;23.350;2023-03-21T12:16:28;63887.88;;;18.33;33.78
6899;BME280;3488;42.616;23.350;2023-03-21T12:19:11;63885.72;;;18.26;34.02
6899;BME280;3488;42.616;23.350;2023-03-21T12:21:44;63885.75;;;18.28;34.81
6899;BME280;3488;42.616;23.350;2023-03-21T12:24:18;63881.03;;;18.21;35.35
6899;BME280;3488;42.616;23.350;2023-03-21T12:26:55;63858.09;;;17.97;35.64
6899;BME280;3488;42.616;23.350;2023-03-21T12:29:34;63884.69;;;18.25;35.91
6899;BME280;3488;42.616;23.350;2023-03-21T12:32:13;63898.81;;;18.43;36.03
6899;BME280;3488;42.616;23.350;2023-03-21T12:35:03;63879.47;;;18.20;35.41
6899;BME280;3488;42.616;23.350;2023-03-21T12:37:37;63869.09;;;18.12;35.27
6899;BME280;3488;42.616;23.350;2023-03-21T12:40:18;63862.34;;;18.08;35.86
6899;BME280;3488;42.616;23.350;2023-03-21T12:45:48;63886.78;;;18.29;35.33
6899;BME280;3488;42.616;23.350;2023-03-21T12:48:21;63895.59;;;18.33;35.55
6899;BME280;3488;42.616;23.350;2023-03-21T12:50:53;63922.22;;;18.61;35.02
6899;BME280;3488;42.616;23.350;2023-03-21T12:53:38;63951.91;;;18.87;34.88
6899;BME280;3488;42.616;23.350;2023-03-21T12:56:14;63959.75;;;18.97;34.53
6899;BME280;3488;42.616;23.350;2023-03-21T12:58:49;63984.75;;;19.21;33.95
6899;BME280;3488;42.616;23.350;2023-03-21T13:01:20;63969.69;;;19.09;34.08
6899;BME280;3488;42.616;23.350;2023-03-21T13:03:50;63938.91;;;18.77;35.50
6899;BME280;3488;42.616;23.350;2023-03-21T13:06:22;63909.72;;;18.49;36.61
6899;BME280;3488;42.616;23.350;2023-03-21T13:08:55;63926.41;;;18.65;36.06
6899;BME280;3488;42.616;23.350;2023-03-21T13:11:24;63950.91;;;18.91;35.06
6899;BME280;3488;42.616;23.350;2023-03-21T13:13:57;63916.53;;;18.61;35.81
6899;BME280;3488;42.616;23.350;2023-03-21T13:16:30;63904.53;;;18.47;35.84
6899;BME280;3488;42.616;23.350;2023-03-21T13:19:04;63907.09;;;18.44;36.50
6899;BME280;3488;42.616;23.350;2023-03-21T13:21:49;63857.59;;;17.99;36.71
6899;BME280;3488;42.616;23.350;2023-03-21T13:24:25;63841.97;;;17.84;37.48
6899;BME280;3488;42.616;23.350;2023-03-21T13:26:57;63848.25;;;17.92;36.88
6899;BME280;3488;42.616;23.350;2023-03-21T13:29:31;63813.41;;;17.61;37.21
6899;BME280;3488;42.616;23.350;2023-03-21T13:32:07;63808.69;;;17.54;37.72
6899;BME280;3488;42.616;23.350;2023-03-21T13:34:38;63817.00;;;17.60;37.65
6899;BME280;3488;42.616;23.350;2023-03-21T13:37:12;63811.25;;;17.54;38.33
6899;BME280;3488;42.616;23.350;2023-03-21T13:39:43;63784.69;;;17.28;38.12